sensor_id;sensor_type;location;lat;lon;timestamp;P1;durP1;ratioP1;P2;durP2;ratioP2
36923;SDS011;22841;50.252;18.688;2022-07-11T00:02:11;9.95;;;3.10;;
36923;SDS011;22841;50.252;18.688;2022-07-11T00:04:38;8.48;;;2.50;;
36923;SDS011;22841;50.252;18.688;2022-07-11T00:07:06;4.93;;;2.35;;
36923;SDS011;22841;50.252;18.688;2022-07-11T00:09:32;5.35;;;3.00;;
36923;SDS011;22841;50.252;18.688;2022-07-11T00:11:58;6.45;;;3.00;;
36923;SDS011;22841;50.252;18.688;2022-07-11T00:14:25;16.02;;;3.30;;
36923;SDS011;22841;50.252;18.688;2022-07-11T00:16:53;8.15;;;2.55;;
36923;SDS011;22841;50.252;18.688;2022-07-11T00:19:19;7.95;;;3.05;;
36923;SDS011;22841;50.252;18.688;2022-07-11T00:21:50;8.23;;;2.78;;
36923;SDS011;22841;50.252;18.688;2022-07-11T00:24:16;10.50;;;3.35;;
36923;SDS011;22841;50.252;18.688;2022-07-11T00:26:48;6.20;;;2.70;;
36923;SDS011;22841;50.252;18.688;2022-07-11T00:29:16;8.93;;;2.75;;
36923;SDS011;22841;50.252;18.688;2022-07-11T00:31:43;6.15;;;2.78;;
36923;SDS011;22841;50.252;18.688;2022-07-11T00:34:09;9.63;;;4.03;;
36923;SDS011;22841;50.252;18.688;2022-07-11T00:36:35;9.35;;;3.15;;
36923;SDS011;22841;50.252;18.688;2022-07-11T00:39:02;11.75;;;2.90;;
36923;SDS011;22841;50.252;18.688;2022-07-11T00:41:29;8.77;;;3.53;;
36923;SDS011;22841;50.252;18.688;2022-07-11T00:43:56;7.60;;;2.60;;
36923;SDS011;22841;50.252;18.688;2022-07-11T00:46:23;3.55;;;2.63;;
36923;SDS011;22841;50.252;18.688;2022-07-11T00:48:50;7.03;;;2.88;;
36923;SDS011;22841;50.252;18.688;2022-07-11T00:51:18;6.72;;;2.20;;
36923;SDS011;22841;50.252;18.688;2022-07-11T00:53:48;8.40;;;3.42;;
36923;SDS011;22841;50.252;18.688;2022-07-11T00:56:22;8.75;;;3.72;;
36923;SDS011;22841;50.252;18.688;2022-07-11T00:58:53;7.85;;;2.20;;
36923;SDS011;22841;50.252;18.688;2022-07-11T01:01:21;6.82;;;2.80;;
36923;SDS011;22841;50.252;18.688;2022-07-11T01:03:47;8.13;;;2.85;;
36923;SDS011;22841;50.252;18.688;2022-07-11T01:06:14;9.07;;;2.67;;
36923;SDS011;22841;50.252;18.688;2022-07-11T01:08:40;10.00;;;3.58;;
36923;SDS011;22841;50.252;18.688;2022-07-11T01:11:10;6.63;;;2.55;;
36923;SDS011;22841;50.252;18.688;2022-07-11T01:13:42;7.30;;;3.33;;
36923;SDS011;22841;50.252;18.688;2022-07-11T01:16:30;7.40;;;2.55;;
36923;SDS011;22841;50.252;18.688;2022-07-11T01:18:56;6.32;;;2.28;;
36923;SDS011;22841;50.252;18.688;2022-07-11T01:21:27;6.07;;;2.65;;
36923;SDS011;22841;50.252;18.688;2022-07-11T01:23:56;7.20;;;2.72;;
36923;SDS011;22841;50.252;18.688;2022-07-11T01:26:26;5.32;;;2.50;;
36923;SDS011;22841;50.252;18.688;2022-07-11T01:28:53;10.63;;;2.90;;
36923;SDS011;22841;50.252;18.688;2022-07-11T01:31:22;8.35;;;2.80;;
36923;SDS011;22841;50.252;18.688;2022-07-11T01:33:48;4.93;;;2.85;;
36923;SDS011;22841;50.252;18.688;2022-07-11T01:36:15;6.03;;;2.30;;
36923;SDS011;22841;50.252;18.688;2022-07-11T01:38:41;7.00;;;2.45;;
36923;SDS011;22841;50.252;18.688;2022-07-11T01:41:07;11.13;;;2.67;;
36923;SDS011;22841;50.252;18.688;2022-07-11T01:43:33;6.53;;;3.35;;
36923;SDS011;22841;50.252;18.688;2022-07-11T01:46:00;6.97;;;2.70;;
36923;SDS011;22841;50.252;18.688;2022-07-11T01:48:26;11.98;;;3.30;;
36923;SDS011;22841;50.252;18.688;2022-07-11T01:50:52;5.72;;;2.85;;
36923;SDS011;22841;50.252;18.688;2022-07-11T01:53:20;5.15;;;2.53;;
36923;SDS011;22841;50.252;18.688;2022-07-11T01:55:47;10.48;;;2.88;;
36923;SDS011;22841;50.252;18.688;2022-07-11T01:58:13;6.15;;;3.00;;
36923;SDS011;22841;50.252;18.688;2022-07-11T02:00:39;10.68;;;3.55;;
36923;SDS011;22841;50.252;18.688;2022-07-11T02:03:05;7.38;;;3.63;;
36923;SDS011;22841;50.252;18.688;2022-07-11T02:05:31;8.27;;;4.07;;
36923;SDS011;22841;50.252;18.688;2022-07-11T02:07:57;9.85;;;3.45;;
36923;SDS011;22841;50.252;18.688;2022-07-11T02:10:40;14.02;;;4.05;;
36923;SDS011;22841;50.252;18.688;2022-07-11T02:13:10;11.18;;;3.53;;
36923;SDS011;22841;50.252;18.688;2022-07-11T02:15:37;8.30;;;3.15;;
36923;SDS011;22841;50.252;18.688;2022-07-11T02:18:04;14.98;;;3.78;;
36923;SDS011;22841;50.252;18.688;2022-07-11T02:20:31;7.20;;;3.25;;
36923;SDS011;22841;50.252;18.688;2022-07-11T02:22:57;11.52;;;3.10;;
36923;SDS011;22841;50.252;18.688;2022-07-11T02:25:24;12.32;;;3.20;;
36923;SDS011;22841;50.252;18.688;2022-07-11T02:27:50;10.45;;;3.55;;
36923;SDS011;22841;50.252;18.688;2022-07-11T02:30:16;10.45;;;3.50;;
36923;SDS011;22841;50.252;18.688;2022-07-11T02:32:42;12.57;;;3.78;;
36923;SDS011;22841;50.252;18.688;2022-07-11T02:35:08;5.50;;;3.15;;
36923;SDS011;22841;50.252;18.688;2022-07-11T02:37:34;10.02;;;3.25;;
36923;SDS011;22841;50.252;18.688;2022-07-11T02:40:01;16.75;;;3.50;;
36923;SDS011;22841;50.252;18.688;2022-07-11T02:42:27;8.35;;;3.60;;
36923;SDS011;22841;50.252;18.688;2022-07-11T02:44:53;9.18;;;3.20;;
36923;SDS011;22841;50.252;18.688;2022-07-11T02:47:19;10.18;;;3.50;;
36923;SDS011;22841;50.252;18.688;2022-07-11T02:49:45;7.45;;;3.45;;
36923;SDS011;22841;50.252;18.688;2022-07-11T02:52:13;10.38;;;3.50;;
36923;SDS011;22841;50.252;18.688;2022-07-11T02:54:39;9.93;;;4.15;;
36923;SDS011;22841;50.252;18.688;2022-07-11T02:57:05;10.07;;;4.43;;
36923;SDS011;22841;50.252;18.688;2022-07-11T02:59:31;8.27;;;4.28;;
36923;SDS011;22841;50.252;18.688;2022-07-11T03:01:57;14.90;;;4.68;;
36923;SDS011;22841;50.252;18.688;2022-07-11T03:04:23;12.85;;;4.65;;
36923;SDS011;22841;50.252;18.688;2022-07-11T03:06:49;8.73;;;3.47;;
36923;SDS011;22841;50.252;18.688;2022-07-11T03:09:16;10.50;;;3.53;;
36923;SDS011;22841;50.252;18.688;2022-07-11T03:11:42;12.77;;;4.50;;
36923;SDS011;22841;50.252;18.688;2022-07-11T03:14:08;10.35;;;4.25;;
36923;SDS011;22841;50.252;18.688;2022-07-11T03:16:34;19.50;;;4.28;;
36923;SDS011;22841;50.252;18.688;2022-07-11T03:19:00;20.05;;;4.43;;
36923;SDS011;22841;50.252;18.688;2022-07-11T03:21:27;9.52;;;4.55;;
36923;SDS011;22841;50.252;18.688;2022-07-11T03:23:53;10.38;;;4.10;;
36923;SDS011;22841;50.252;18.688;2022-07-11T03:26:19;16.83;;;4.45;;
36923;SDS011;22841;50.252;18.688;2022-07-11T03:28:45;13.88;;;3.70;;
36923;SDS011;22841;50.252;18.688;2022-07-11T03:31:11;13.40;;;4.65;;
36923;SDS011;22841;50.252;18.688;2022-07-11T03:33:37;10.15;;;3.97;;
36923;SDS011;22841;50.252;18.688;2022-07-11T03:36:04;11.73;;;4.00;;
36923;SDS011;22841;50.252;18.688;2022-07-11T03:38:31;17.13;;;4.72;;
36923;SDS011;22841;50.252;18.688;2022-07-11T03:40:57;12.35;;;4.13;;
36923;SDS011;22841;50.252;18.688;2022-07-11T03:43:23;12.15;;;5.00;;
36923;SDS011;22841;50.252;18.688;2022-07-11T03:45:49;16.40;;;4.38;;
36923;SDS011;22841;50.252;18.688;2022-07-11T03:48:16;9.63;;;4.45;;
36923;SDS011;22841;50.252;18.688;2022-07-11T03:50:42;12.05;;;4.68;;
36923;SDS011;22841;50.252;18.688;2022-07-11T03:53:08;9.88;;;4.35;;
36923;SDS011;22841;50.252;18.688;2022-07-11T03:55:34;12.00;;;4.07;;
36923;SDS011;22841;50.252;18.688;2022-07-11T03:58:02;14.10;;;4.78;;
36923;SDS011;22841;50.252;18.688;2022-07-11T04:00:28;13.57;;;4.72;;
36923;SDS011;22841;50.252;18.688;2022-07-11T04:02:54;11.27;;;3.92;;
36923;SDS011;22841;50.252;18.688;2022-07-11T04:05:20;12.48;;;4.15;;
36923;SDS011;22841;50.252;18.688;2022-07-11T04:07:46;16.52;;;3.92;;
36923;SDS011;22841;50.252;18.688;2022-07-11T04:10:12;13.10;;;4.75;;
36923;SDS011;22841;50.252;18.688;2022-07-11T04:12:38;9.15;;;5.00;;
36923;SDS011;22841;50.252;18.688;2022-07-11T04:15:05;9.88;;;3.95;;
36923;SDS011;22841;50.252;18.688;2022-07-11T04:17:32;15.27;;;4.22;;
36923;SDS011;22841;50.252;18.688;2022-07-11T04:19:58;8.43;;;4.38;;
36923;SDS011;22841;50.252;18.688;2022-07-11T04:22:24;13.00;;;4.25;;
36923;SDS011;22841;50.252;18.688;2022-07-11T04:24:51;8.85;;;3.80;;
36923;SDS011;22841;50.252;18.688;2022-07-11T04:27:18;11.10;;;3.67;;
36923;SDS011;22841;50.252;18.688;2022-07-11T04:29:44;10.57;;;4.65;;
36923;SDS011;22841;50.252;18.688;2022-07-11T04:32:10;16.08;;;5.07;;
36923;SDS011;22841;50.252;18.688;2022-07-11T04:34:36;17.00;;;5.53;;
36923;SDS011;22841;50.252;18.688;2022-07-11T04:37:02;11.13;;;5.30;;
36923;SDS011;22841;50.252;18.688;2022-07-11T04:39:28;9.77;;;3.88;;
36923;SDS011;22841;50.252;18.688;2022-07-11T04:41:54;11.40;;;4.35;;
36923;SDS011;22841;50.252;18.688;2022-07-11T04:44:20;8.98;;;3.75;;
36923;SDS011;22841;50.252;18.688;2022-07-11T04:46:47;10.35;;;3.95;;
36923;SDS011;22841;50.252;18.688;2022-07-11T04:49:13;21.25;;;3.97;;
36923;SDS011;22841;50.252;18.688;2022-07-11T04:51:40;9.45;;;3.63;;
36923;SDS011;22841;50.252;18.688;2022-07-11T04:54:06;16.20;;;4.55;;
36923;SDS011;22841;50.252;18.688;2022-07-11T04:56:34;11.85;;;4.47;;
36923;SDS011;22841;50.252;18.688;2022-07-11T04:59:00;9.48;;;4.90;;
36923;SDS011;22841;50.252;18.688;2022-07-11T05:01:27;13.35;;;4.95;;
36923;SDS011;22841;50.252;18.688;2022-07-11T05:03:54;11.70;;;4.38;;
36923;SDS011;22841;50.252;18.688;2022-07-11T05:06:21;14.07;;;5.50;;
36923;SDS011;22841;50.252;18.688;2022-07-11T05:08:47;11.80;;;5.00;;
36923;SDS011;22841;50.252;18.688;2022-07-11T05:11:13;7.38;;;3.90;;
36923;SDS011;22841;50.252;18.688;2022-07-11T05:13:39;10.95;;;5.68;;
36923;SDS011;22841;50.252;18.688;2022-07-11T05:16:06;16.98;;;4.00;;
36923;SDS011;22841;50.252;18.688;2022-07-11T05:18:32;11.70;;;3.97;;
36923;SDS011;22841;50.252;18.688;2022-07-11T05:20:58;12.10;;;4.13;;
36923;SDS011;22841;50.252;18.688;2022-07-11T05:23:24;10.73;;;4.30;;
36923;SDS011;22841;50.252;18.688;2022-07-11T05:25:50;13.40;;;4.30;;
36923;SDS011;22841;50.252;18.688;2022-07-11T05:28:16;9.13;;;3.83;;
36923;SDS011;22841;50.252;18.688;2022-07-11T05:30:42;16.10;;;4.35;;
36923;SDS011;22841;50.252;18.688;2022-07-11T05:33:09;12.73;;;3.97;;
36923;SDS011;22841;50.252;18.688;2022-07-11T05:35:35;7.47;;;3.47;;
36923;SDS011;22841;50.252;18.688;2022-07-11T05:38:01;11.80;;;4.03;;
36923;SDS011;22841;50.252;18.688;2022-07-11T05:40:27;10.35;;;4.47;;
36923;SDS011;22841;50.252;18.688;2022-07-11T05:42:53;13.52;;;3.47;;
36923;SDS011;22841;50.252;18.688;2022-07-11T05:45:19;15.40;;;4.13;;
36923;SDS011;22841;50.252;18.688;2022-07-11T05:47:45;10.23;;;4.07;;
36923;SDS011;22841;50.252;18.688;2022-07-11T05:50:11;15.38;;;4.38;;
36923;SDS011;22841;50.252;18.688;2022-07-11T05:52:37;18.85;;;4.10;;
36923;SDS011;22841;50.252;18.688;2022-07-11T05:55:04;8.68;;;3.30;;
36923;SDS011;22841;50.252;18.688;2022-07-11T05:57:30;8.32;;;3.15;;
36923;SDS011;22841;50.252;18.688;2022-07-11T05:59:56;7.85;;;2.75;;
36923;SDS011;22841;50.252;18.688;2022-07-11T06:02:22;8.98;;;3.47;;
36923;SDS011;22841;50.252;18.688;2022-07-11T06:04:48;10.88;;;3.17;;
36923;SDS011;22841;50.252;18.688;2022-07-11T06:07:14;14.38;;;3.15;;
36923;SDS011;22841;50.252;18.688;2022-07-11T06:10:00;14.93;;;3.92;;
36923;SDS011;22841;50.252;18.688;2022-07-11T06:12:27;10.45;;;3.67;;
36923;SDS011;22841;50.252;18.688;2022-07-11T06:14:53;11.02;;;2.85;;
36923;SDS011;22841;50.252;18.688;2022-07-11T06:17:19;12.63;;;3.03;;
36923;SDS011;22841;50.252;18.688;2022-07-11T06:19:45;9.40;;;2.92;;
36923;SDS011;22841;50.252;18.688;2022-07-11T06:22:11;16.88;;;3.13;;
36923;SDS011;22841;50.252;18.688;2022-07-11T06:24:37;10.25;;;3.15;;
36923;SDS011;22841;50.252;18.688;2022-07-11T06:27:03;12.10;;;3.08;;
36923;SDS011;22841;50.252;18.688;2022-07-11T06:29:30;16.42;;;3.28;;
36923;SDS011;22841;50.252;18.688;2022-07-11T06:31:56;7.55;;;2.67;;
36923;SDS011;22841;50.252;18.688;2022-07-11T06:34:22;13.10;;;3.03;;
36923;SDS011;22841;50.252;18.688;2022-07-11T06:36:48;3.85;;;2.42;;
36923;SDS011;22841;50.252;18.688;2022-07-11T06:39:14;9.35;;;2.35;;
36923;SDS011;22841;50.252;18.688;2022-07-11T06:41:40;25.00;;;3.70;;
36923;SDS011;22841;50.252;18.688;2022-07-11T06:44:06;13.60;;;3.00;;
36923;SDS011;22841;50.252;18.688;2022-07-11T06:46:32;13.15;;;2.90;;
36923;SDS011;22841;50.252;18.688;2022-07-11T06:48:58;10.48;;;2.88;;
36923;SDS011;22841;50.252;18.688;2022-07-11T06:51:24;8.57;;;2.92;;
36923;SDS011;22841;50.252;18.688;2022-07-11T06:53:53;9.85;;;3.25;;
36923;SDS011;22841;50.252;18.688;2022-07-11T06:56:19;17.65;;;2.88;;
36923;SDS011;22841;50.252;18.688;2022-07-11T06:58:45;11.30;;;2.47;;
36923;SDS011;22841;50.252;18.688;2022-07-11T07:01:11;7.57;;;2.03;;
36923;SDS011;22841;50.252;18.688;2022-07-11T07:03:37;9.90;;;2.92;;
36923;SDS011;22841;50.252;18.688;2022-07-11T07:06:03;7.45;;;2.40;;
36923;SDS011;22841;50.252;18.688;2022-07-11T07:08:31;13.77;;;3.33;;
36923;SDS011;22841;50.252;18.688;2022-07-11T07:10:57;12.93;;;3.00;;
36923;SDS011;22841;50.252;18.688;2022-07-11T07:13:23;15.38;;;2.80;;
36923;SDS011;22841;50.252;18.688;2022-07-11T07:15:54;13.93;;;2.42;;
36923;SDS011;22841;50.252;18.688;2022-07-11T07:18:21;8.50;;;2.25;;
36923;SDS011;22841;50.252;18.688;2022-07-11T07:20:47;15.57;;;3.88;;
36923;SDS011;22841;50.252;18.688;2022-07-11T07:23:13;8.52;;;2.30;;
36923;SDS011;22841;50.252;18.688;2022-07-11T07:25:39;10.60;;;2.20;;
36923;SDS011;22841;50.252;18.688;2022-07-11T07:28:05;10.15;;;2.25;;
36923;SDS011;22841;50.252;18.688;2022-07-11T07:30:32;16.35;;;3.40;;
36923;SDS011;22841;50.252;18.688;2022-07-11T07:32:58;10.50;;;2.95;;
36923;SDS011;22841;50.252;18.688;2022-07-11T07:35:26;8.48;;;3.28;;
36923;SDS011;22841;50.252;18.688;2022-07-11T07:37:53;9.27;;;3.30;;
36923;SDS011;22841;50.252;18.688;2022-07-11T07:40:19;11.32;;;2.83;;
36923;SDS011;22841;50.252;18.688;2022-07-11T07:42:47;10.25;;;3.35;;
36923;SDS011;22841;50.252;18.688;2022-07-11T07:45:14;9.95;;;3.15;;
36923;SDS011;22841;50.252;18.688;2022-07-11T07:47:40;7.70;;;2.40;;
36923;SDS011;22841;50.252;18.688;2022-07-11T07:50:07;12.82;;;2.97;;
36923;SDS011;22841;50.252;18.688;2022-07-11T07:52:33;9.52;;;3.17;;
36923;SDS011;22841;50.252;18.688;2022-07-11T07:54:59;12.63;;;2.75;;
36923;SDS011;22841;50.252;18.688;2022-07-11T07:57:25;12.43;;;2.65;;
36923;SDS011;22841;50.252;18.688;2022-07-11T07:59:51;11.93;;;2.58;;
36923;SDS011;22841;50.252;18.688;2022-07-11T08:02:37;12.05;;;2.83;;
36923;SDS011;22841;50.252;18.688;2022-07-11T08:05:03;5.88;;;2.25;;
36923;SDS011;22841;50.252;18.688;2022-07-11T08:07:29;185.05;;;12.65;;
36923;SDS011;22841;50.252;18.688;2022-07-11T08:09:55;6.22;;;1.58;;
36923;SDS011;22841;50.252;18.688;2022-07-11T08:12:21;13.85;;;2.28;;
36923;SDS011;22841;50.252;18.688;2022-07-11T08:14:47;5.30;;;1.77;;
36923;SDS011;22841;50.252;18.688;2022-07-11T08:17:13;9.43;;;1.92;;
36923;SDS011;22841;50.252;18.688;2022-07-11T08:19:39;13.82;;;3.00;;
36923;SDS011;22841;50.252;18.688;2022-07-11T08:22:05;14.25;;;2.10;;
36923;SDS011;22841;50.252;18.688;2022-07-11T08:24:32;5.15;;;2.08;;
36923;SDS011;22841;50.252;18.688;2022-07-11T08:26:58;10.35;;;1.63;;
36923;SDS011;22841;50.252;18.688;2022-07-11T08:29:24;10.20;;;1.55;;
36923;SDS011;22841;50.252;18.688;2022-07-11T08:31:50;4.10;;;1.75;;
36923;SDS011;22841;50.252;18.688;2022-07-11T08:34:16;2.95;;;1.45;;
36923;SDS011;22841;50.252;18.688;2022-07-11T08:36:42;6.35;;;1.95;;
36923;SDS011;22841;50.252;18.688;2022-07-11T08:39:08;6.28;;;1.50;;
36923;SDS011;22841;50.252;18.688;2022-07-11T08:41:37;9.45;;;1.35;;
36923;SDS011;22841;50.252;18.688;2022-07-11T08:44:08;5.82;;;1.92;;
36923;SDS011;22841;50.252;18.688;2022-07-11T08:46:34;2.70;;;1.02;;
36923;SDS011;22841;50.252;18.688;2022-07-11T08:49:01;4.18;;;1.48;;
36923;SDS011;22841;50.252;18.688;2022-07-11T08:51:28;6.10;;;1.67;;
36923;SDS011;22841;50.252;18.688;2022-07-11T08:53:55;12.23;;;2.47;;
36923;SDS011;22841;50.252;18.688;2022-07-11T08:56:21;6.78;;;2.03;;
36923;SDS011;22841;50.252;18.688;2022-07-11T08:58:48;7.40;;;2.05;;
36923;SDS011;22841;50.252;18.688;2022-07-11T09:01:15;8.57;;;1.80;;
36923;SDS011;22841;50.252;18.688;2022-07-11T09:03:42;7.25;;;2.05;;
36923;SDS011;22841;50.252;18.688;2022-07-11T09:06:09;3.75;;;1.70;;
36923;SDS011;22841;50.252;18.688;2022-07-11T09:08:37;7.38;;;1.65;;
36923;SDS011;22841;50.252;18.688;2022-07-11T09:11:03;8.50;;;1.83;;
36923;SDS011;22841;50.252;18.688;2022-07-11T09:13:30;6.28;;;1.98;;
36923;SDS011;22841;50.252;18.688;2022-07-11T09:16:03;8.00;;;1.92;;
36923;SDS011;22841;50.252;18.688;2022-07-11T09:18:32;9.25;;;1.65;;
36923;SDS011;22841;50.252;18.688;2022-07-11T09:21:08;7.22;;;1.33;;
36923;SDS011;22841;50.252;18.688;2022-07-11T09:23:57;11.23;;;1.95;;
36923;SDS011;22841;50.252;18.688;2022-07-11T09:26:48;10.00;;;1.50;;
36923;SDS011;22841;50.252;18.688;2022-07-11T09:29:17;7.85;;;1.92;;
36923;SDS011;22841;50.252;18.688;2022-07-11T09:31:47;5.32;;;1.60;;
36923;SDS011;22841;50.252;18.688;2022-07-11T09:34:20;7.00;;;1.38;;
36923;SDS011;22841;50.252;18.688;2022-07-11T09:36:50;7.30;;;1.70;;
36923;SDS011;22841;50.252;18.688;2022-07-11T09:39:20;10.30;;;1.63;;
36923;SDS011;22841;50.252;18.688;2022-07-11T09:41:51;4.35;;;1.13;;
36923;SDS011;22841;50.252;18.688;2022-07-11T09:44:24;6.30;;;1.88;;
36923;SDS011;22841;50.252;18.688;2022-07-11T09:46:58;3.83;;;1.40;;
36923;SDS011;22841;50.252;18.688;2022-07-11T09:49:32;7.72;;;1.40;;
36923;SDS011;22841;50.252;18.688;2022-07-11T09:52:07;3.00;;;1.15;;
36923;SDS011;22841;50.252;18.688;2022-07-11T09:54:53;3.67;;;1.00;;
36923;SDS011;22841;50.252;18.688;2022-07-11T10:00:00;12.65;;;2.17;;
36923;SDS011;22841;50.252;18.688;2022-07-11T10:02:30;4.53;;;1.10;;
36923;SDS011;22841;50.252;18.688;2022-07-11T10:04:58;14.48;;;1.42;;
36923;SDS011;22841;50.252;18.688;2022-07-11T10:07:25;3.45;;;1.10;;
36923;SDS011;22841;50.252;18.688;2022-07-11T10:09:52;1.98;;;0.70;;
36923;SDS011;22841;50.252;18.688;2022-07-11T10:12:19;2.20;;;0.70;;
36923;SDS011;22841;50.252;18.688;2022-07-11T10:14:46;4.28;;;1.65;;
36923;SDS011;22841;50.252;18.688;2022-07-11T10:17:17;3.20;;;0.88;;
36923;SDS011;22841;50.252;18.688;2022-07-11T10:25:52;3.63;;;1.08;;
36923;SDS011;22841;50.252;18.688;2022-07-11T10:28:31;8.18;;;0.70;;
36923;SDS011;22841;50.252;18.688;2022-07-11T10:31:18;1.85;;;0.70;;
36923;SDS011;22841;50.252;18.688;2022-07-11T10:34:04;1.80;;;1.15;;
36923;SDS011;22841;50.252;18.688;2022-07-11T10:36:39;1.92;;;0.70;;
36923;SDS011;22841;50.252;18.688;2022-07-11T10:39:16;5.82;;;0.95;;
36923;SDS011;22841;50.252;18.688;2022-07-11T10:41:44;2.60;;;1.23;;
36923;SDS011;22841;50.252;18.688;2022-07-11T10:44:11;2.55;;;0.80;;
36923;SDS011;22841;50.252;18.688;2022-07-11T10:46:37;2.67;;;0.77;;
36923;SDS011;22841;50.252;18.688;2022-07-11T10:51:43;4.93;;;0.82;;
36923;SDS011;22841;50.252;18.688;2022-07-11T10:54:18;2.22;;;0.70;;
36923;SDS011;22841;50.252;18.688;2022-07-11T11:00:00;5.00;;;0.95;;
36923;SDS011;22841;50.252;18.688;2022-07-11T11:02:27;3.10;;;0.85;;
36923;SDS011;22841;50.252;18.688;2022-07-11T11:05:00;1.60;;;0.73;;
36923;SDS011;22841;50.252;18.688;2022-07-11T11:07:31;1.98;;;0.75;;
36923;SDS011;22841;50.252;18.688;2022-07-11T11:10:07;7.07;;;0.95;;
36923;SDS011;22841;50.252;18.688;2022-07-11T11:23:31;1.90;;;1.20;;
36923;SDS011;22841;50.252;18.688;2022-07-11T11:28:31;6.00;;;1.40;;
36923;SDS011;22841;50.252;18.688;2022-07-11T11:30:58;3.78;;;1.33;;
36923;SDS011;22841;50.252;18.688;2022-07-11T11:33:25;2.10;;;1.40;;
36923;SDS011;22841;50.252;18.688;2022-07-11T11:38:29;4.90;;;1.02;;
36923;SDS011;22841;50.252;18.688;2022-07-11T11:40:59;4.10;;;1.25;;
36923;SDS011;22841;50.252;18.688;2022-07-11T11:43:25;6.45;;;1.45;;
36923;SDS011;22841;50.252;18.688;2022-07-11T11:45:52;6.63;;;2.00;;
36923;SDS011;22841;50.252;18.688;2022-07-11T11:48:28;5.18;;;1.50;;
36923;SDS011;22841;50.252;18.688;2022-07-11T11:51:00;1.90;;;0.95;;
36923;SDS011;22841;50.252;18.688;2022-07-11T11:53:40;1.75;;;0.85;;
36923;SDS011;22841;50.252;18.688;2022-07-11T11:56:17;1.80;;;0.73;;
36923;SDS011;22841;50.252;18.688;2022-07-11T12:01:31;2.97;;;0.80;;
36923;SDS011;22841;50.252;18.688;2022-07-11T12:03:59;3.30;;;0.60;;
36923;SDS011;22841;50.252;18.688;2022-07-11T12:06:27;1.75;;;0.82;;
36923;SDS011;22841;50.252;18.688;2022-07-11T12:11:28;2.65;;;0.40;;
36923;SDS011;22841;50.252;18.688;2022-07-11T12:13:57;0.50;;;0.50;;
36923;SDS011;22841;50.252;18.688;2022-07-11T12:16:34;1.48;;;0.40;;
36923;SDS011;22841;50.252;18.688;2022-07-11T12:19:24;1.15;;;1.05;;
36923;SDS011;22841;50.252;18.688;2022-07-11T12:21:58;1.55;;;0.63;;
36923;SDS011;22841;50.252;18.688;2022-07-11T12:24:28;2.55;;;0.60;;
36923;SDS011;22841;50.252;18.688;2022-07-11T12:26:54;1.08;;;0.55;;
36923;SDS011;22841;50.252;18.688;2022-07-11T12:29:21;3.15;;;1.33;;
36923;SDS011;22841;50.252;18.688;2022-07-11T12:31:56;0.30;;;0.30;;
36923;SDS011;22841;50.252;18.688;2022-07-11T12:39:51;1.42;;;0.40;;
36923;SDS011;22841;50.252;18.688;2022-07-11T12:42:30;0.30;;;0.30;;
36923;SDS011;22841;50.252;18.688;2022-07-11T12:44:59;1.65;;;0.25;;
36923;SDS011;22841;50.252;18.688;2022-07-11T12:47:36;10.73;;;0.50;;
36923;SDS011;22841;50.252;18.688;2022-07-11T12:52:50;2.40;;;0.38;;
36923;SDS011;22841;50.252;18.688;2022-07-11T13:00:28;0.47;;;0.40;;
36923;SDS011;22841;50.252;18.688;2022-07-11T13:02:57;0.70;;;0.30;;
36923;SDS011;22841;50.252;18.688;2022-07-11T13:05:24;0.88;;;0.55;;
36923;SDS011;22841;50.252;18.688;2022-07-11T13:07:50;0.30;;;0.30;;
36923;SDS011;22841;50.252;18.688;2022-07-11T13:10:35;0.60;;;0.60;;
36923;SDS011;22841;50.252;18.688;2022-07-11T13:13:17;0.25;;;0.25;;
36923;SDS011;22841;50.252;18.688;2022-07-11T13:15:45;1.45;;;0.43;;
36923;SDS011;22841;50.252;18.688;2022-07-11T13:18:13;1.92;;;0.40;;
36923;SDS011;22841;50.252;18.688;2022-07-11T13:20:40;0.40;;;0.40;;
36923;SDS011;22841;50.252;18.688;2022-07-11T13:23:06;0.52;;;0.47;;
36923;SDS011;22841;50.252;18.688;2022-07-11T13:25:35;10.65;;;1.00;;
36923;SDS011;22841;50.252;18.688;2022-07-11T13:28:01;0.52;;;0.40;;
36923;SDS011;22841;50.252;18.688;2022-07-11T13:30:27;1.27;;;0.40;;
36923;SDS011;22841;50.252;18.688;2022-07-11T13:32:57;1.60;;;0.45;;
36923;SDS011;22841;50.252;18.688;2022-07-11T13:35:26;1.38;;;0.32;;
36923;SDS011;22841;50.252;18.688;2022-07-11T13:37:52;0.45;;;0.40;;
36923;SDS011;22841;50.252;18.688;2022-07-11T13:40:20;2.20;;;0.28;;
36923;SDS011;22841;50.252;18.688;2022-07-11T13:42:49;0.35;;;0.25;;
36923;SDS011;22841;50.252;18.688;2022-07-11T13:45:16;0.43;;;0.43;;
36923;SDS011;22841;50.252;18.688;2022-07-11T13:47:43;0.47;;;0.47;;
36923;SDS011;22841;50.252;18.688;2022-07-11T13:50:13;3.30;;;1.35;;
36923;SDS011;22841;50.252;18.688;2022-07-11T13:52:40;2.92;;;1.30;;
36923;SDS011;22841;50.252;18.688;2022-07-11T13:55:06;1.13;;;1.02;;
36923;SDS011;22841;50.252;18.688;2022-07-11T13:57:36;1.17;;;0.55;;
36923;SDS011;22841;50.252;18.688;2022-07-11T14:00:02;1.85;;;0.68;;
36923;SDS011;22841;50.252;18.688;2022-07-11T14:02:29;1.48;;;0.50;;
36923;SDS011;22841;50.252;18.688;2022-07-11T14:04:56;0.88;;;0.50;;
36923;SDS011;22841;50.252;18.688;2022-07-11T14:07:23;0.70;;;0.50;;
36923;SDS011;22841;50.252;18.688;2022-07-11T14:09:50;0.98;;;0.43;;
36923;SDS011;22841;50.252;18.688;2022-07-11T14:12:16;1.65;;;0.80;;
36923;SDS011;22841;50.252;18.688;2022-07-11T14:14:42;3.10;;;0.90;;
36923;SDS011;22841;50.252;18.688;2022-07-11T14:17:09;4.97;;;0.70;;
36923;SDS011;22841;50.252;18.688;2022-07-11T14:19:35;2.50;;;0.70;;
36923;SDS011;22841;50.252;18.688;2022-07-11T14:22:04;2.28;;;0.82;;
36923;SDS011;22841;50.252;18.688;2022-07-11T14:24:34;0.75;;;0.50;;
36923;SDS011;22841;50.252;18.688;2022-07-11T14:27:03;0.90;;;0.77;;
36923;SDS011;22841;50.252;18.688;2022-07-11T14:29:30;1.13;;;0.65;;
36923;SDS011;22841;50.252;18.688;2022-07-11T14:31:57;0.68;;;0.52;;
36923;SDS011;22841;50.252;18.688;2022-07-11T14:34:24;4.80;;;1.23;;
36923;SDS011;22841;50.252;18.688;2022-07-11T14:36:51;1.33;;;0.63;;
36923;SDS011;22841;50.252;18.688;2022-07-11T14:39:18;1.52;;;0.82;;
36923;SDS011;22841;50.252;18.688;2022-07-11T14:41:44;1.25;;;0.77;;
36923;SDS011;22841;50.252;18.688;2022-07-11T14:44:10;1.02;;;0.68;;
36923;SDS011;22841;50.252;18.688;2022-07-11T14:46:36;3.47;;;0.50;;
36923;SDS011;22841;50.252;18.688;2022-07-11T14:49:03;0.95;;;0.68;;
36923;SDS011;22841;50.252;18.688;2022-07-11T14:51:36;0.85;;;0.70;;
36923;SDS011;22841;50.252;18.688;2022-07-11T14:54:02;2.33;;;0.70;;
36923;SDS011;22841;50.252;18.688;2022-07-11T14:56:28;1.85;;;1.00;;
36923;SDS011;22841;50.252;18.688;2022-07-11T14:58:55;1.35;;;0.75;;
36923;SDS011;22841;50.252;18.688;2022-07-11T15:01:21;1.52;;;0.77;;
36923;SDS011;22841;50.252;18.688;2022-07-11T15:03:47;1.67;;;0.90;;
36923;SDS011;22841;50.252;18.688;2022-07-11T15:06:14;3.10;;;1.17;;
36923;SDS011;22841;50.252;18.688;2022-07-11T15:08:41;5.47;;;0.88;;
36923;SDS011;22841;50.252;18.688;2022-07-11T15:11:26;0.85;;;0.85;;
36923;SDS011;22841;50.252;18.688;2022-07-11T15:14:11;1.30;;;0.60;;
36923;SDS011;22841;50.252;18.688;2022-07-11T15:16:39;7.10;;;1.67;;
36923;SDS011;22841;50.252;18.688;2022-07-11T15:19:05;3.60;;;1.15;;
36923;SDS011;22841;50.252;18.688;2022-07-11T15:21:34;3.83;;;1.10;;
36923;SDS011;22841;50.252;18.688;2022-07-11T15:24:01;3.42;;;1.15;;
36923;SDS011;22841;50.252;18.688;2022-07-11T15:26:27;5.13;;;1.38;;